Time;durP1;ratioP1;P1;durP2;ratioP2;P2;SDS_P1;SDS_P2;PMS_P1;PMS_P2;Temp;Humidity;BMP_temperature;BMP_pressure;BME280_temperature;BME280_humidity;BME280_pressure;Samples;Min_cycle;Max_cycle;Signal;HPM_P1;HPM_P2
2020/12/11 00:01:33;;;;;;;21.77;11.20;;;;;;;;;;5075681;28;20405;-74
2020/12/11 00:03:59;;;;;;;16.50;10.90;;;;;;;;;;5074371;28;20818;-74
2020/12/11 00:06:25;;;;;;;21.00;12.00;;;;;;;;;;5076162;28;20477;-74
2020/12/11 00:08:51;;;;;;;23.23;12.30;;;;;;;;;;5074827;28;20591;-74
2020/12/11 00:11:17;;;;;;;17.63;9.97;;;;;;;;;;5075796;28;20413;-75
2020/12/11 00:13:44;;;;;;;18.03;10.40;;;;;;;;;;5075527;28;20768;-75
2020/12/11 00:16:10;;;;;;;17.00;10.50;;;;;;;;;;5055911;28;20482;-76
2020/12/11 00:18:36;;;;;;;18.33;11.43;;;;;;;;;;5075441;28;20407;-76
2020/12/11 00:21:03;;;;;;;26.13;12.47;;;;;;;;;;5074625;28;20454;-75
2020/12/11 00:23:29;;;;;;;23.07;11.00;;;;;;;;;;5074844;28;20431;-75
2020/12/11 00:25:58;;;;;;;21.57;12.07;;;;;;;;;;5071761;28;20463;-75
2020/12/11 00:28:31;;;;;;;20.50;11.30;;;;;;;;;;5075817;28;20397;-75
2020/12/11 00:30:57;;;;;;;18.13;9.60;;;;;;;;;;5074092;28;20440;-75
2020/12/11 00:33:24;;;;;;;16.20;8.97;;;;;;;;;;5075359;28;20881;-74
2020/12/11 00:35:51;;;;;;;20.90;11.00;;;;;;;;;;5072278;28;20433;-74
2020/12/11 00:38:17;;;;;;;19.13;10.17;;;;;;;;;;5054803;28;20434;-74
2020/12/11 00:40:43;;;;;;;19.33;10.03;;;;;;;;;;5069421;28;20487;-75
2020/12/11 00:43:09;;;;;;;18.67;9.67;;;;;;;;;;5074863;28;20393;-75
2020/12/11 00:45:35;;;;;;;24.17;11.10;;;;;;;;;;5074055;28;20432;-75
2020/12/11 00:48:01;;;;;;;14.20;10.03;;;;;;;;;;5073602;28;20420;-75
2020/12/11 00:50:27;;;;;;;16.23;9.50;;;;;;;;;;5073595;28;20488;-75
2020/12/11 00:52:53;;;;;;;18.17;10.03;;;;;;;;;;5074950;28;20520;-74
2020/12/11 00:55:21;;;;;;;16.90;9.93;;;;;;;;;;5073628;28;20459;-75
2020/12/11 00:57:47;;;;;;;18.60;10.50;;;;;;;;;;5074504;28;20421;-74
2020/12/11 01:00:14;;;;;;;17.20;9.80;;;;;;;;;;5073604;28;20435;-75
2020/12/11 01:02:40;;;;;;;19.13;10.17;;;;;;;;;;5074838;28;20496;-75
2020/12/11 01:05:07;;;;;;;17.93;10.27;;;;;;;;;;5073478;28;20504;-75
2020/12/11 01:07:33;;;;;;;18.00;10.87;;;;;;;;;;5074301;28;20432;-75
2020/12/11 01:09:59;;;;;;;15.90;9.67;;;;;;;;;;5072669;28;20457;-75
2020/12/11 01:12:25;;;;;;;22.80;11.40;;;;;;;;;;5074652;28;20421;-75
2020/12/11 01:14:51;;;;;;;17.47;9.90;;;;;;;;;;5073422;28;20429;-75
2020/12/11 01:17:17;;;;;;;18.37;9.27;;;;;;;;;;5074457;28;20426;-74
2020/12/11 01:19:44;;;;;;;15.47;8.63;;;;;;;;;;5073123;28;20512;-74
2020/12/11 01:22:10;;;;;;;16.73;10.23;;;;;;;;;;5073250;28;20478;-75
2020/12/11 01:24:36;;;;;;;15.30;8.87;;;;;;;;;;5072770;28;20425;-76
2020/12/11 01:27:02;;;;;;;15.37;9.80;;;;;;;;;;5073353;28;20948;-74
2020/12/11 01:29:28;;;;;;;17.80;10.10;;;;;;;;;;5072845;28;20456;-75
2020/12/11 01:31:58;;;;;;;16.70;9.97;;;;;;;;;;5073944;28;20401;-75
2020/12/11 01:34:25;;;;;;;17.17;8.60;;;;;;;;;;5072224;28;20397;-75
2020/12/11 01:36:51;;;;;;;10.60;6.80;;;;;;;;;;5073779;28;20421;-74
2020/12/11 01:39:17;;;;;;;14.30;8.00;;;;;;;;;;5073570;28;20406;-75
2020/12/11 01:41:43;;;;;;;17.30;8.00;;;;;;;;;;5074507;28;20417;-74
2020/12/11 01:44:10;;;;;;;13.00;8.03;;;;;;;;;;5074442;28;20768;-74
2020/12/11 01:46:40;;;;;;;14.07;7.57;;;;;;;;;;5073896;28;20586;-73
2020/12/11 01:49:07;;;;;;;12.97;7.93;;;;;;;;;;5076825;28;20805;-74
2020/12/11 01:51:35;;;;;;;12.40;7.10;;;;;;;;;;5077879;28;20425;-74
2020/12/11 01:54:01;;;;;;;16.27;8.77;;;;;;;;;;5079667;28;20427;-74
2020/12/11 01:56:30;;;;;;;13.97;8.13;;;;;;;;;;5078481;28;20444;-74
2020/12/11 01:59:00;;;;;;;16.27;8.50;;;;;;;;;;5076506;28;20837;-74
2020/12/11 02:01:26;;;;;;;14.47;7.90;;;;;;;;;;5072707;28;20429;-74
2020/12/11 02:03:53;;;;;;;13.17;7.67;;;;;;;;;;5073759;28;20809;-75
2020/12/11 02:06:19;;;;;;;13.83;8.50;;;;;;;;;;5072907;28;20443;-74
2020/12/11 02:08:45;;;;;;;14.73;8.57;;;;;;;;;;5073397;28;20492;-75
2020/12/11 02:11:20;;;;;;;12.47;7.50;;;;;;;;;;5072270;28;20424;-74
2020/12/11 02:13:46;;;;;;;16.57;8.90;;;;;;;;;;5071293;28;20781;-74
2020/12/11 02:16:13;;;;;;;13.50;6.83;;;;;;;;;;5071450;28;20460;-74
2020/12/11 02:18:42;;;;;;;11.43;7.93;;;;;;;;;;5073318;28;20431;-75
2020/12/11 02:21:09;;;;;;;12.10;7.33;;;;;;;;;;5072014;28;20455;-75
2020/12/11 02:23:35;;;;;;;14.10;7.57;;;;;;;;;;5073321;28;20486;-74
2020/12/11 02:26:01;;;;;;;18.80;9.27;;;;;;;;;;5073450;28;20455;-74
2020/12/11 02:28:31;;;;;;;18.73;9.40;;;;;;;;;;5073012;28;20421;-74
2020/12/11 02:30:57;;;;;;;17.40;9.70;;;;;;;;;;5072111;28;20510;-74
2020/12/11 02:33:23;;;;;;;19.33;9.93;;;;;;;;;;5073409;28;20401;-75
2020/12/11 02:35:49;;;;;;;27.53;10.60;;;;;;;;;;5072579;28;20416;-74
2020/12/11 02:38:15;;;;;;;20.10;11.00;;;;;;;;;;5071783;28;20924;-75
2020/12/11 02:40:48;;;;;;;16.33;10.27;;;;;;;;;;5070923;28;20937;-74
2020/12/11 02:43:15;;;;;;;25.83;9.93;;;;;;;;;;5053881;28;20402;-74
2020/12/11 02:45:41;;;;;;;23.03;11.30;;;;;;;;;;5072915;28;20488;-75
2020/12/11 02:48:07;;;;;;;25.13;10.57;;;;;;;;;;5054202;28;20508;-74
2020/12/11 02:50:33;;;;;;;17.40;9.93;;;;;;;;;;5073191;28;20518;-74
2020/12/11 02:52:59;;;;;;;18.10;9.97;;;;;;;;;;5071877;28;20919;-74
2020/12/11 02:55:25;;;;;;;20.40;10.27;;;;;;;;;;5071708;28;20405;-75
2020/12/11 02:57:52;;;;;;;18.83;10.43;;;;;;;;;;5053961;28;20603;-74
2020/12/11 03:00:18;;;;;;;16.80;9.93;;;;;;;;;;5071878;28;20428;-74
2020/12/11 03:02:44;;;;;;;16.23;10.13;;;;;;;;;;5071901;28;20432;-74
2020/12/11 03:05:10;;;;;;;21.93;11.20;;;;;;;;;;5072838;28;20900;-75
2020/12/11 03:07:36;;;;;;;18.13;10.70;;;;;;;;;;5071669;28;20473;-74
2020/12/11 03:10:02;;;;;;;19.60;10.90;;;;;;;;;;5072617;28;20927;-75
2020/12/11 03:12:28;;;;;;;20.57;10.80;;;;;;;;;;5071703;28;20429;-74
2020/12/11 03:14:53;;;;;;;23.03;11.47;;;;;;;;;;5072627;28;20421;-75
2020/12/11 03:17:19;;;;;;;24.30;12.60;;;;;;;;;;5071959;28;20448;-74
2020/12/11 03:19:46;;;;;;;26.73;11.57;;;;;;;;;;5072607;28;20508;-75
2020/12/11 03:22:11;;;;;;;25.40;12.30;;;;;;;;;;5071604;28;20941;-74
2020/12/11 03:24:37;;;;;;;25.60;11.63;;;;;;;;;;5072879;28;20404;-75
2020/12/11 03:27:04;;;;;;;19.90;11.13;;;;;;;;;;5071439;28;20479;-74
2020/12/11 03:29:30;;;;;;;18.30;11.73;;;;;;;;;;5072030;28;20952;-74
2020/12/11 03:31:56;;;;;;;19.17;10.80;;;;;;;;;;5070111;28;20424;-76
2020/12/11 03:34:22;;;;;;;25.33;12.33;;;;;;;;;;5075122;28;20402;-75
2020/12/11 03:36:48;;;;;;;20.73;12.10;;;;;;;;;;5075047;28;20527;-74
2020/12/11 03:39:14;;;;;;;25.23;11.63;;;;;;;;;;5076389;28;20861;-75
2020/12/11 03:41:40;;;;;;;22.87;12.00;;;;;;;;;;5075032;28;20456;-74
2020/12/11 03:44:07;;;;;;;21.43;11.93;;;;;;;;;;5073054;28;20514;-74
2020/12/11 03:46:33;;;;;;;21.70;10.77;;;;;;;;;;5074967;28;20826;-75
2020/12/11 03:48:59;;;;;;;18.57;10.87;;;;;;;;;;5075848;28;20499;-75
2020/12/11 03:51:25;;;;;;;24.17;13.23;;;;;;;;;;5074915;28;20425;-74
2020/12/11 03:53:51;;;;;;;26.10;11.50;;;;;;;;;;5076101;28;20451;-75
2020/12/11 03:56:18;;;;;;;25.23;11.83;;;;;;;;;;5074711;28;20453;-74
2020/12/11 03:58:44;;;;;;;29.97;14.20;;;;;;;;;;5076038;28;20401;-75
2020/12/11 04:01:14;;;;;;;27.93;12.10;;;;;;;;;;5074613;28;20475;-74
2020/12/11 04:03:40;;;;;;;20.37;11.50;;;;;;;;;;5075850;28;20454;-75
2020/12/11 04:06:07;;;;;;;25.57;13.20;;;;;;;;;;5074688;28;20451;-74
2020/12/11 04:08:33;;;;;;;23.20;11.10;;;;;;;;;;5076189;28;20870;-76
2020/12/11 04:10:59;;;;;;;18.77;11.80;;;;;;;;;;5074604;28;20471;-75
2020/12/11 04:13:25;;;;;;;20.43;10.67;;;;;;;;;;5074572;28;20421;-75
2020/12/11 04:15:51;;;;;;;23.33;13.23;;;;;;;;;;5075669;28;20910;-76
2020/12/11 04:18:17;;;;;;;22.53;11.70;;;;;;;;;;5074345;28;20429;-75
2020/12/11 04:20:43;;;;;;;26.93;11.60;;;;;;;;;;5075327;28;20482;-76
2020/12/11 04:23:09;;;;;;;23.37;10.90;;;;;;;;;;5074549;28;20443;-75
2020/12/11 04:25:35;;;;;;;27.73;12.47;;;;;;;;;;5075276;28;20766;-76
2020/12/11 04:28:01;;;;;;;16.63;10.53;;;;;;;;;;5074277;28;20428;-75
2020/12/11 04:30:27;;;;;;;24.87;12.90;;;;;;;;;;5076489;28;20850;-75
2020/12/11 04:32:53;;;;;;;24.73;11.30;;;;;;;;;;5074561;28;20425;-75
2020/12/11 04:35:19;;;;;;;21.77;11.30;;;;;;;;;;5074452;28;20496;-76
2020/12/11 04:37:45;;;;;;;23.60;11.60;;;;;;;;;;5074126;28;20444;-76
2020/12/11 04:40:11;;;;;;;20.50;8.90;;;;;;;;;;5074223;28;20433;-76
2020/12/11 04:42:38;;;;;;;22.07;10.63;;;;;;;;;;5074961;28;20409;-76
2020/12/11 04:45:04;;;;;;;22.20;10.30;;;;;;;;;;5073839;28;20485;-75
2020/12/11 04:47:31;;;;;;;26.50;10.40;;;;;;;;;;5073771;28;20453;-75
2020/12/11 04:49:57;;;;;;;24.47;10.47;;;;;;;;;;5073661;28;20463;-76
2020/12/11 04:52:27;;;;;;;27.87;10.93;;;;;;;;;;5074856;28;20859;-76
2020/12/11 04:54:55;;;;;;;21.10;10.87;;;;;;;;;;5073839;28;20429;-76
2020/12/11 04:57:26;;;;;;;23.50;11.80;;;;;;;;;;5075287;28;20462;-76
2020/12/11 04:59:52;;;;;;;24.20;10.93;;;;;;;;;;5073691;28;20775;-76
2020/12/11 05:02:18;;;;;;;29.33;12.40;;;;;;;;;;5074584;28;20412;-76
2020/12/11 05:04:44;;;;;;;23.33;12.70;;;;;;;;;;5073793;28;20458;-76
2020/12/11 05:07:10;;;;;;;28.87;13.70;;;;;;;;;;5074706;28;20906;-75
2020/12/11 05:09:36;;;;;;;23.70;12.23;;;;;;;;;;5055569;28;20451;-76
2020/12/11 05:12:13;;;;;;;25.40;12.30;;;;;;;;;;5074456;28;20812;-75
2020/12/11 05:14:39;;;;;;;25.90;13.43;;;;;;;;;;5073547;28;20781;-76
2020/12/11 05:17:06;;;;;;;26.63;12.90;;;;;;;;;;5074356;28;20759;-76
2020/12/11 05:19:33;;;;;;;22.50;10.30;;;;;;;;;;5073156;28;20485;-74
2020/12/11 05:22:11;;;;;;;26.67;13.27;;;;;;;;;;5074383;28;20446;-75
2020/12/11 05:24:59;;;;;;;15.77;9.87;;;;;;;;;;5073058;28;20479;-75
2020/12/11 05:27:38;;;;;;;22.17;10.93;;;;;;;;;;5074141;28;20794;-76
2020/12/11 05:30:10;;;;;;;16.37;9.83;;;;;;;;;;5072870;28;20452;-75
2020/12/11 05:32:40;;;;;;;31.73;11.90;;;;;;;;;;5071534;28;20519;-75
2020/12/11 05:35:15;;;;;;;18.73;10.00;;;;;;;;;;5071497;28;20759;-75
2020/12/11 05:37:47;;;;;;;24.10;10.80;;;;;;;;;;5073817;28;20421;-75
2020/12/11 05:40:17;;;;;;;19.67;9.70;;;;;;;;;;5073117;28;20428;-75
2020/12/11 05:42:44;;;;;;;22.17;10.23;;;;;;;;;;5073848;28;20405;-75
2020/12/11 05:45:28;;;;;;;25.33;13.07;;;;;;;;;;5072729;28;20420;-74
2020/12/11 05:47:59;;;;;;;23.50;10.93;;;;;;;;;;5073780;28;20425;-74
2020/12/11 05:50:25;;;;;;;24.57;11.77;;;;;;;;;;5072736;28;20448;-74
2020/12/11 05:52:52;;;;;;;26.27;11.57;;;;;;;;;;5072694;28;20831;-75
2020/12/11 05:55:18;;;;;;;22.07;10.27;;;;;;;;;;5072533;28;20784;-74
2020/12/11 05:57:45;;;;;;;26.20;12.47;;;;;;;;;;5073354;28;20425;-74
2020/12/11 06:00:11;;;;;;;22.93;10.37;;;;;;;;;;5072933;28;20425;-75
2020/12/11 06:02:37;;;;;;;21.60;9.60;;;;;;;;;;5073958;28;20770;-73
2020/12/11 06:05:03;;;;;;;17.93;10.20;;;;;;;;;;5072824;28;20420;-73
2020/12/11 06:07:29;;;;;;;19.73;9.50;;;;;;;;;;5073495;28;20436;-73
2020/12/11 06:09:55;;;;;;;20.13;10.07;;;;;;;;;;5072370;28;20498;-76
2020/12/11 06:12:27;;;;;;;25.27;11.57;;;;;;;;;;5073569;28;20409;-74
2020/12/11 06:14:56;;;;;;;24.47;11.63;;;;;;;;;;5072539;28;20486;-74
2020/12/11 06:17:24;;;;;;;20.73;11.23;;;;;;;;;;5073506;28;20417;-74
2020/12/11 06:19:51;;;;;;;22.50;11.80;;;;;;;;;;5072412;28;20516;-74
2020/12/11 06:22:17;;;;;;;22.60;12.20;;;;;;;;;;5073203;28;20483;-74
2020/12/11 06:24:43;;;;;;;26.10;12.17;;;;;;;;;;5072191;28;20487;-74
2020/12/11 06:27:09;;;;;;;24.07;11.87;;;;;;;;;;5071112;28;21022;-74
2020/12/11 06:29:40;;;;;;;22.70;11.37;;;;;;;;;;5071734;28;20456;-74
2020/12/11 06:32:09;;;;;;;24.93;12.00;;;;;;;;;;5072738;28;20500;-74
2020/12/11 06:34:35;;;;;;;20.20;10.03;;;;;;;;;;5081895;28;20421;-74
2020/12/11 06:37:01;;;;;;;21.00;9.97;;;;;;;;;;5073259;28;20447;-74
2020/12/11 06:39:47;;;;;;;21.87;10.97;;;;;;;;;;5072179;28;20443;-74
2020/12/11 06:42:32;;;;;;;23.50;11.70;;;;;;;;;;5073095;28;20409;-75
2020/12/11 06:45:16;;;;;;;20.60;12.60;;;;;;;;;;5071042;28;20544;-75
2020/12/11 06:47:51;;;;;;;20.90;8.97;;;;;;;;;;5073040;28;20835;-74
2020/12/11 06:50:18;;;;;;;20.93;10.33;;;;;;;;;;5072224;28;20456;-75
2020/12/11 06:52:44;;;;;;;18.80;10.37;;;;;;;;;;5073013;28;20761;-75
2020/12/11 06:55:10;;;;;;;24.33;12.20;;;;;;;;;;5071747;28;20933;-75
2020/12/11 06:57:38;;;;;;;18.40;10.93;;;;;;;;;;5071553;28;20425;-75
2020/12/11 07:00:23;;;;;;;28.47;12.20;;;;;;;;;;5071831;28;20805;-75
2020/12/11 07:03:08;;;;;;;25.20;10.60;;;;;;;;;;5072812;28;20413;-75
2020/12/11 07:05:34;;;;;;;18.07;9.97;;;;;;;;;;5071197;28;20777;-75
2020/12/11 07:08:00;;;;;;;24.67;10.97;;;;;;;;;;5073427;28;20683;-75
2020/12/11 07:10:27;;;;;;;29.07;12.67;;;;;;;;;;5075602;28;20456;-75
2020/12/11 07:12:54;;;;;;;26.37;12.87;;;;;;;;;;5075936;28;20424;-75
2020/12/11 07:15:20;;;;;;;22.93;11.93;;;;;;;;;;5075699;28;20442;-75
2020/12/11 07:17:46;;;;;;;15.50;10.90;;;;;;;;;;5076873;28;20417;-75
2020/12/11 07:20:12;;;;;;;23.80;12.27;;;;;;;;;;5075885;28;20432;-76
2020/12/11 07:22:39;;;;;;;28.60;12.77;;;;;;;;;;5076815;28;20519;-77
2020/12/11 07:25:05;;;;;;;21.80;10.70;;;;;;;;;;5075377;28;20435;-76
2020/12/11 07:27:31;;;;;;;16.73;10.73;;;;;;;;;;5075334;28;20762;-76
2020/12/11 07:29:57;;;;;;;20.17;9.80;;;;;;;;;;5075615;28;20459;-76
2020/12/11 07:32:23;;;;;;;18.97;11.00;;;;;;;;;;5076922;28;20413;-77
2020/12/11 07:34:49;;;;;;;20.00;11.70;;;;;;;;;;5073185;28;20944;-76
2020/12/11 07:37:15;;;;;;;21.33;10.33;;;;;;;;;;5076111;28;20834;-76
2020/12/11 07:39:41;;;;;;;20.40;10.70;;;;;;;;;;5075220;28;20799;-76
2020/12/11 07:42:09;;;;;;;21.40;12.10;;;;;;;;;;5076130;28;20397;-77
2020/12/11 07:44:36;;;;;;;23.50;10.90;;;;;;;;;;5075585;28;20400;-75
2020/12/11 07:47:03;;;;;;;20.70;11.63;;;;;;;;;;5074831;28;20464;-76
2020/12/11 07:49:35;;;;;;;21.93;10.27;;;;;;;;;;5075890;28;20945;-76
2020/12/11 07:52:01;;;;;;;24.10;10.23;;;;;;;;;;5075376;28;20452;-76
2020/12/11 07:54:34;;;;;;;21.47;10.40;;;;;;;;;;5076172;28;20389;-76
2020/12/11 07:57:19;;;;;;;17.20;8.23;;;;;;;;;;5074743;28;20455;-76
2020/12/11 07:59:57;;;;;;;22.90;11.53;;;;;;;;;;5074750;28;20420;-76
2020/12/11 08:02:26;;;;;;;18.23;10.43;;;;;;;;;;5055599;28;20409;-76
2020/12/11 08:04:53;;;;;;;23.50;11.77;;;;;;;;;;5056710;28;20475;-76
2020/12/11 08:07:23;;;;;;;18.97;10.57;;;;;;;;;;5076165;28;20460;-76
2020/12/11 08:09:49;;;;;;;20.57;9.53;;;;;;;;;;5074989;28;20449;-77
2020/12/11 08:12:17;;;;;;;23.93;11.87;;;;;;;;;;5075730;28;20394;-76
2020/12/11 08:14:44;;;;;;;20.53;10.57;;;;;;;;;;5075000;28;20412;-77
2020/12/11 08:17:14;;;;;;;19.63;10.47;;;;;;;;;;5075137;28;20444;-75
2020/12/11 08:19:40;;;;;;;21.43;10.40;;;;;;;;;;5075294;28;20466;-76
2020/12/11 08:22:13;;;;;;;20.07;11.10;;;;;;;;;;5073622;28;20425;-77
2020/12/11 08:24:39;;;;;;;20.13;10.97;;;;;;;;;;5075444;28;20446;-75
2020/12/11 08:27:06;;;;;;;18.07;9.20;;;;;;;;;;5074399;28;20451;-76
2020/12/11 08:29:32;;;;;;;19.43;9.97;;;;;;;;;;5056386;28;20445;-76
2020/12/11 08:31:58;;;;;;;15.23;9.53;;;;;;;;;;5071971;28;21130;-76
2020/12/11 08:34:30;;;;;;;20.07;9.80;;;;;;;;;;5064556;28;20563;-77
2020/12/11 08:37:04;;;;;;;22.40;10.17;;;;;;;;;;5054819;28;20477;-71
2020/12/11 08:39:30;;;;;;;19.33;10.00;;;;;;;;;;5062366;28;20439;-69
2020/12/11 08:42:13;;;;;;;21.90;10.37;;;;;;;;;;5067743;28;20461;-69
2020/12/11 08:52:49;;;;;;;15.70;9.20;;;;;;;;;;5072876;28;20820;-67
2020/12/11 08:55:21;;;;;;;19.93;8.50;;;;;;;;;;5071571;28;20425;-66
2020/12/11 08:57:49;;;;;;;20.83;10.93;;;;;;;;;;5070691;28;20870;-66
2020/12/11 09:00:17;;;;;;;21.60;12.23;;;;;;;;;;5072590;28;20428;-67
2020/12/11 09:02:43;;;;;;;24.70;12.13;;;;;;;;;;5072862;28;20987;-67
2020/12/11 09:05:09;;;;;;;18.57;9.80;;;;;;;;;;5072486;28;20413;-68
2020/12/11 09:07:35;;;;;;;20.40;9.40;;;;;;;;;;5070300;28;20472;-68
2020/12/11 09:10:01;;;;;;;21.57;11.80;;;;;;;;;;5057189;28;20547;-69
2020/12/11 09:12:27;;;;;;;20.50;10.53;;;;;;;;;;5043403;28;20488;-68
2020/12/11 09:14:53;;;;;;;16.87;10.20;;;;;;;;;;5044777;28;21164;-69
2020/12/11 09:17:19;;;;;;;21.60;11.07;;;;;;;;;;5050969;28;20579;-69
2020/12/11 09:19:45;;;;;;;26.87;11.67;;;;;;;;;;5053225;28;20921;-69
2020/12/11 09:22:11;;;;;;;23.97;8.73;;;;;;;;;;5069647;28;20433;-68
2020/12/11 09:24:37;;;;;;;16.23;8.60;;;;;;;;;;5072814;28;20479;-70
2020/12/11 09:27:05;;;;;;;14.77;9.40;;;;;;;;;;5071908;28;20445;-69
2020/12/11 09:29:37;;;;;;;13.63;8.60;;;;;;;;;;5071973;28;20489;-69
2020/12/11 09:32:05;;;;;;;20.53;9.30;;;;;;;;;;5071791;28;20425;-69
2020/12/11 09:34:32;;;;;;;14.53;9.33;;;;;;;;;;5070689;28;20406;-69
2020/12/11 09:37:00;;;;;;;18.90;10.13;;;;;;;;;;5067829;28;20456;-69
2020/12/11 09:39:26;;;;;;;18.77;9.67;;;;;;;;;;5070743;28;20464;-69
2020/12/11 09:42:24;;;;;;;15.87;8.47;;;;;;;;;;5072180;28;20486;-69
2020/12/11 09:45:04;;;;;;;13.90;7.73;;;;;;;;;;5068679;28;20422;-69
2020/12/11 09:55:13;;;;;;;14.30;7.50;;;;;;;;;;5073084;28;20784;-71
2020/12/11 09:57:39;;;;;;;13.40;7.70;;;;;;;;;;5070646;28;20433;-69
2020/12/11 10:00:06;;;;;;;16.67;8.60;;;;;;;;;;5070895;28;20494;-69
2020/12/11 10:02:53;;;;;;;14.10;8.33;;;;;;;;;;5069269;28;20786;-68
2020/12/11 10:05:19;;;;;;;14.17;8.13;;;;;;;;;;5071187;28;20413;-68
2020/12/11 10:07:45;;;;;;;12.67;7.83;;;;;;;;;;5070856;28;20437;-70
2020/12/11 10:10:11;;;;;;;12.90;7.70;;;;;;;;;;5053510;28;20472;-70
2020/12/11 10:12:37;;;;;;;15.53;7.80;;;;;;;;;;5062754;28;20429;-69
2020/12/11 10:15:08;;;;;;;16.97;7.63;;;;;;;;;;5055379;28;20504;-72
2020/12/11 10:17:34;;;;;;;16.37;7.53;;;;;;;;;;5069326;28;20441;-70
2020/12/11 10:20:00;;;;;;;15.60;8.13;;;;;;;;;;5072929;28;20446;-71
2020/12/11 10:22:26;;;;;;;20.13;10.07;;;;;;;;;;5071600;28;20473;-70
2020/12/11 10:24:52;;;;;;;14.03;7.23;;;;;;;;;;5072735;28;20813;-69
2020/12/11 10:27:20;;;;;;;13.23;7.70;;;;;;;;;;5072070;28;20436;-72
2020/12/11 10:29:46;;;;;;;14.07;7.67;;;;;;;;;;5072851;28;20482;-71
2020/12/11 10:32:12;;;;;;;14.30;8.50;;;;;;;;;;5071613;28;20421;-70
2020/12/11 10:34:38;;;;;;;21.47;10.03;;;;;;;;;;5072316;28;20439;-69
2020/12/11 10:37:08;;;;;;;24.27;10.63;;;;;;;;;;5071720;28;20513;-72
2020/12/11 10:39:36;;;;;;;18.37;8.27;;;;;;;;;;5063750;28;20439;-69
2020/12/11 10:42:03;;;;;;;10.60;7.30;;;;;;;;;;5067687;28;20433;-69
2020/12/11 10:44:30;;;;;;;13.07;8.20;;;;;;;;;;5076162;28;20912;-71
2020/12/11 10:46:56;;;;;;;15.73;8.00;;;;;;;;;;5075783;28;20440;-69
2020/12/11 10:49:22;;;;;;;13.30;8.10;;;;;;;;;;5076858;28;20484;-68
2020/12/11 10:51:51;;;;;;;13.67;7.10;;;;;;;;;;5075186;28;20801;-70
2020/12/11 10:54:18;;;;;;;16.90;9.03;;;;;;;;;;5074522;28;20504;-69
2020/12/11 10:56:47;;;;;;;14.73;8.70;;;;;;;;;;5074289;28;20479;-68
2020/12/11 10:59:14;;;;;;;18.03;8.00;;;;;;;;;;5057538;28;20448;-69
2020/12/11 11:01:40;;;;;;;11.13;7.50;;;;;;;;;;5073420;28;20491;-70
2020/12/11 11:04:07;;;;;;;14.73;8.03;;;;;;;;;;5075861;28;20403;-70
2020/12/11 11:06:37;;;;;;;14.60;7.77;;;;;;;;;;5075028;28;20859;-69
2020/12/11 11:12:18;;;;;;;14.17;8.23;;;;;;;;;;5074839;28;20436;-71
2020/12/11 11:20:02;;;;;;;16.17;7.83;;;;;;;;;;5076033;28;20432;-69
2020/12/11 11:27:49;;;;;;;15.50;9.03;;;;;;;;;;5069949;28;20527;-70
2020/12/11 11:30:18;;;;;;;12.50;8.23;;;;;;;;;;5078439;28;20810;-70
2020/12/11 11:32:44;;;;;;;15.50;8.70;;;;;;;;;;5079488;28;20440;-70
2020/12/11 11:35:10;;;;;;;10.37;8.00;;;;;;;;;;5080272;28;20420;-70
2020/12/11 11:37:36;;;;;;;14.97;10.37;;;;;;;;;;5076320;28;20953;-69
2020/12/11 11:40:03;;;;;;;18.73;10.97;;;;;;;;;;5075034;28;20412;-69
2020/12/11 11:42:29;;;;;;;14.47;9.27;;;;;;;;;;5068563;28;20436;-69
2020/12/11 11:45:03;;;;;;;15.17;7.80;;;;;;;;;;5075553;28;20462;-70
2020/12/11 11:47:29;;;;;;;16.87;8.97;;;;;;;;;;5065488;28;20449;-70
2020/12/11 11:52:44;;;;;;;12.27;8.63;;;;;;;;;;5064047;28;20845;-70
2020/12/11 11:55:11;;;;;;;18.90;8.70;;;;;;;;;;5074600;28;20393;-70
2020/12/11 11:57:37;;;;;;;15.30;7.80;;;;;;;;;;5073157;28;20476;-69
2020/12/11 12:00:05;;;;;;;12.87;8.13;;;;;;;;;;5075186;28;20833;-69
2020/12/11 12:02:31;;;;;;;15.93;8.50;;;;;;;;;;5073320;28;20443;-69
2020/12/11 12:04:57;;;;;;;16.83;7.83;;;;;;;;;;5075512;28;20781;-69
2020/12/11 12:07:23;;;;;;;13.80;9.00;;;;;;;;;;5069346;28;20452;-69
2020/12/11 12:09:49;;;;;;;14.20;8.50;;;;;;;;;;5075159;28;20484;-69
2020/12/11 12:12:15;;;;;;;13.20;7.20;;;;;;;;;;5072717;28;20475;-70
2020/12/11 12:14:42;;;;;;;10.13;6.37;;;;;;;;;;5063371;28;20771;-69
2020/12/11 12:17:08;;;;;;;12.70;8.17;;;;;;;;;;5074309;28;20548;-68
2020/12/11 12:19:39;;;;;;;14.90;7.67;;;;;;;;;;5070481;28;20417;-69
2020/12/11 12:22:45;;;;;;;17.23;8.03;;;;;;;;;;5064541;28;20437;-69
2020/12/11 12:30:02;;;;;;;11.10;7.70;;;;;;;;;;5074090;28;20485;-69
2020/12/11 12:32:32;;;;;;;12.17;7.97;;;;;;;;;;5073536;28;20479;-70
2020/12/11 12:35:01;;;;;;;12.50;7.30;;;;;;;;;;5074837;28;20402;-69
2020/12/11 12:45:13;;;;;;;12.20;8.37;;;;;;;;;;5074364;28;20466;-69
2020/12/11 12:47:40;;;;;;;16.60;7.40;;;;;;;;;;5073302;28;20474;-69
2020/12/11 12:50:08;;;;;;;17.60;8.40;;;;;;;;;;5074503;28;20457;-69
2020/12/11 12:52:34;;;;;;;18.57;7.47;;;;;;;;;;5069573;28;20841;-69
2020/12/11 12:55:00;;;;;;;16.60;8.60;;;;;;;;;;5073356;28;20421;-69
2020/12/11 13:05:20;;;;;;;13.60;7.23;;;;;;;;;;5073159;28;20385;-70
2020/12/11 13:07:46;;;;;;;15.87;7.70;;;;;;;;;;5071602;28;20961;-70
2020/12/11 13:10:13;;;;;;;12.53;7.37;;;;;;;;;;5072872;28;20453;-69
2020/12/11 13:12:41;;;;;;;13.23;8.80;;;;;;;;;;5061954;28;20447;-71
2020/12/11 13:15:07;;;;;;;15.50;7.43;;;;;;;;;;5053454;28;20499;-69
2020/12/11 13:17:33;;;;;;;17.20;9.00;;;;;;;;;;5054878;28;20437;-70
2020/12/11 13:20:01;;;;;;;16.53;9.10;;;;;;;;;;5059232;28;20518;-70
2020/12/11 13:22:47;;;;;;;18.03;9.10;;;;;;;;;;5053947;28;20402;-71
2020/12/11 13:27:58;;;;;;;19.30;9.87;;;;;;;;;;5060654;28;20471;-68
2020/12/11 13:30:24;;;;;;;17.60;8.17;;;;;;;;;;5055751;28;20445;-69
2020/12/11 13:32:50;;;;;;;19.23;9.17;;;;;;;;;;5071928;28;20441;-68
2020/12/11 13:35:16;;;;;;;13.83;7.80;;;;;;;;;;5073278;28;20401;-69
2020/12/11 13:37:42;;;;;;;14.87;8.97;;;;;;;;;;5071812;28;20421;-70
2020/12/11 13:40:08;;;;;;;17.80;8.50;;;;;;;;;;5073705;28;20409;-70
2020/12/11 13:42:34;;;;;;;16.07;9.40;;;;;;;;;;5072112;28;20430;-70
2020/12/11 13:45:00;;;;;;;16.57;10.00;;;;;;;;;;5066503;28;20524;-71
2020/12/11 13:47:27;;;;;;;19.57;10.67;;;;;;;;;;5062409;28;20523;-70
2020/12/11 13:49:53;;;;;;;14.60;8.90;;;;;;;;;;5061918;28;20463;-70
2020/12/11 13:52:19;;;;;;;14.87;8.77;;;;;;;;;;5061733;28;20409;-70
2020/12/11 13:54:45;;;;;;;16.07;8.40;;;;;;;;;;5061378;28;20784;-70
2020/12/11 13:57:11;;;;;;;18.10;9.37;;;;;;;;;;5064673;28;20459;-70
2020/12/11 13:59:37;;;;;;;22.73;9.73;;;;;;;;;;5061813;28;20933;-70
2020/12/11 14:02:04;;;;;;;16.93;7.80;;;;;;;;;;5061257;28;21122;-70
2020/12/11 14:04:30;;;;;;;22.37;11.30;;;;;;;;;;5061208;28;20433;-69
2020/12/11 14:06:56;;;;;;;13.40;8.13;;;;;;;;;;5060266;28;20426;-70
2020/12/11 14:09:22;;;;;;;21.13;8.17;;;;;;;;;;5062951;28;20461;-69
2020/12/11 14:11:48;;;;;;;14.37;8.50;;;;;;;;;;5072791;28;20770;-69
2020/12/11 14:14:14;;;;;;;12.20;8.20;;;;;;;;;;5061162;28;20791;-70
2020/12/11 14:16:46;;;;;;;15.23;8.63;;;;;;;;;;5061776;28;21106;-69
2020/12/11 14:24:11;;;;;;;19.83;9.53;;;;;;;;;;5063794;28;20425;-69
2020/12/11 14:26:40;;;;;;;12.43;7.30;;;;;;;;;;5072465;28;20913;-69
2020/12/11 14:29:06;;;;;;;12.53;7.73;;;;;;;;;;5071864;28;20440;-69
2020/12/11 14:31:32;;;;;;;19.00;8.50;;;;;;;;;;5072672;28;20984;-69
2020/12/11 14:33:59;;;;;;;12.63;7.57;;;;;;;;;;5070737;28;20428;-70
2020/12/11 14:36:25;;;;;;;12.70;8.80;;;;;;;;;;5054388;28;20432;-70
2020/12/11 14:41:26;;;;;;;11.30;7.40;;;;;;;;;;5064274;28;20419;-69
2020/12/11 14:43:53;;;;;;;11.87;7.57;;;;;;;;;;5064476;28;20425;-71
2020/12/11 14:46:19;;;;;;;16.53;8.13;;;;;;;;;;5063742;28;20844;-70
2020/12/11 14:48:45;;;;;;;13.97;8.47;;;;;;;;;;5062071;28;20437;-69
2020/12/11 14:51:11;;;;;;;14.23;8.47;;;;;;;;;;5060774;28;20463;-71
2020/12/11 14:53:37;;;;;;;20.93;9.20;;;;;;;;;;5059489;28;20452;-70
2020/12/11 14:56:03;;;;;;;14.10;9.27;;;;;;;;;;5059691;28;20421;-69
2020/12/11 14:58:30;;;;;;;14.73;9.00;;;;;;;;;;5061267;28;20990;-69
2020/12/11 15:00:56;;;;;;;14.07;8.17;;;;;;;;;;5060712;28;20523;-69
2020/12/11 15:03:22;;;;;;;17.67;6.83;;;;;;;;;;5061251;28;20774;-69
2020/12/11 15:05:48;;;;;;;13.90;8.70;;;;;;;;;;5060480;28;20417;-69
2020/12/11 15:08:14;;;;;;;11.07;8.03;;;;;;;;;;5062981;28;20417;-69
2020/12/11 15:10:40;;;;;;;17.03;8.63;;;;;;;;;;5049914;28;20564;-68
2020/12/11 15:13:07;;;;;;;12.37;8.17;;;;;;;;;;5059970;28;20508;-67
2020/12/11 15:15:33;;;;;;;15.17;7.93;;;;;;;;;;5049683;28;20437;-68
2020/12/11 15:17:59;;;;;;;11.77;6.60;;;;;;;;;;5062595;28;20445;-69
2020/12/11 15:20:25;;;;;;;12.10;7.73;;;;;;;;;;5071792;28;20436;-69
2020/12/11 15:22:52;;;;;;;13.43;7.90;;;;;;;;;;5072041;28;20413;-69
2020/12/11 15:25:20;;;;;;;13.50;8.10;;;;;;;;;;5070158;28;20494;-69
2020/12/11 15:27:46;;;;;;;13.47;7.00;;;;;;;;;;5066540;28;20457;-67
2020/12/11 15:30:12;;;;;;;13.37;7.00;;;;;;;;;;5072188;28;20538;-68